Terminal Aerodrome Forecast
Issued by NWS

Home | Current Version | Previous Version | Text Only | Print | Product List | Glossary On
Versions: 1 2 3 4 5 6 7 8 9 10 11 12 13 14 15 16 17 18 19 20 21 22 23 24 25 26
069
FTUS43 KSGF 172252 AAC
TAFJLN
TAF AMD
KJLN 172252Z 1723/1818 20015KT P6SM OVC035
     FM181000 28019G27KT P6SM OVC030
     FM181400 31025G35KT P6SM OVC025=

USA.gov is the U.S. government's official web portal to all federal, state and local government web resources and services.